ミラノ/マルペンサ の空港の天気 - METARとTAF

ミラノ・マルペンサ国際空港 ( LIMC / MXP ) - イタリア ミラノ
飛行場実況気象(Metar)
観測時間08/13 10:20 CEST (08/13 08:20 UTC)
風向・風速不定 2m/s
視程10km以上
天気現象
なし
気温26℃
湿度39%
気圧1015hPa
METARLIMC 130820Z VRB03KT CAVOK 26/11 Q1015 NOSIG
過去の天気等 Google飛行場航空写真 Wunderground天気予報

過去48時間のMETAR

飛行場予報(TAF)
発表時間: 8/13 07:00 CEST (8/13 05:00 UTC)
予報対象時間: 13日8時 CEST ~ 14日14時 CEST
風向・風速不定 3m/s
視程10km以上
なし
TAF LIMC 130500Z 1306/1412 VRB05KT CAVOK